sensor_id;sensor_type;location;lat;lon;timestamp;temperature;humidity
21199;DHT22;10757;51.038;3.712;2022-12-18T00:01:41;-2.10;99.90
21199;DHT22;10757;51.038;3.712;2022-12-18T00:04:22;-2.00;99.90
21199;DHT22;10757;51.038;3.712;2022-12-18T00:06:49;-2.10;99.90
21199;DHT22;10757;51.038;3.712;2022-12-18T00:09:15;-2.30;99.90
21199;DHT22;10757;51.038;3.712;2022-12-18T00:11:41;-2.30;99.90
21199;DHT22;10757;51.038;3.712;2022-12-18T00:14:08;-2.40;99.90
21199;DHT22;10757;51.038;3.712;2022-12-18T00:16:34;-2.40;99.90
21199;DHT22;10757;51.038;3.712;2022-12-18T00:19:02;-2.40;99.90
21199;DHT22;10757;51.038;3.712;2022-12-18T00:21:30;-2.50;99.90
21199;DHT22;10757;51.038;3.712;2022-12-18T00:23:57;-2.40;99.90
21199;DHT22;10757;51.038;3.712;2022-12-18T00:26:26;-2.60;99.90
21199;DHT22;10757;51.038;3.712;2022-12-18T00:28:53;-2.70;99.90
21199;DHT22;10757;51.038;3.712;2022-12-18T00:31:21;-2.60;99.90
21199;DHT22;10757;51.038;3.712;2022-12-18T00:33:47;-2.60;99.90
21199;DHT22;10757;51.038;3.712;2022-12-18T00:36:19;-2.70;99.90
21199;DHT22;10757;51.038;3.712;2022-12-18T00:38:46;-2.70;99.90
21199;DHT22;10757;51.038;3.712;2022-12-18T00:41:14;-2.80;99.90
21199;DHT22;10757;51.038;3.712;2022-12-18T00:44:00;-2.90;99.90
21199;DHT22;10757;51.038;3.712;2022-12-18T00:46:26;-2.90;99.90
21199;DHT22;10757;51.038;3.712;2022-12-18T00:48:56;-3.00;99.90
21199;DHT22;10757;51.038;3.712;2022-12-18T00:51:22;-2.90;99.90
21199;DHT22;10757;51.038;3.712;2022-12-18T00:53:49;-3.00;99.90
21199;DHT22;10757;51.038;3.712;2022-12-18T00:56:15;-3.00;99.90
21199;DHT22;10757;51.038;3.712;2022-12-18T00:58:41;-3.10;99.90
21199;DHT22;10757;51.038;3.712;2022-12-18T01:01:06;-3.00;99.90
21199;DHT22;10757;51.038;3.712;2022-12-18T01:03:36;-3.00;99.90
21199;DHT22;10757;51.038;3.712;2022-12-18T01:06:08;-3.10;99.90
21199;DHT22;10757;51.038;3.712;2022-12-18T01:08:34;-3.00;99.90
21199;DHT22;10757;51.038;3.712;2022-12-18T01:11:06;-2.90;99.90
21199;DHT22;10757;51.038;3.712;2022-12-18T01:13:32;-3.00;99.90
21199;DHT22;10757;51.038;3.712;2022-12-18T01:15:58;-3.10;99.90
21199;DHT22;10757;51.038;3.712;2022-12-18T01:18:24;-3.00;99.90
21199;DHT22;10757;51.038;3.712;2022-12-18T01:20:50;-3.00;99.90
21199;DHT22;10757;51.038;3.712;2022-12-18T01:23:16;-3.00;99.90
21199;DHT22;10757;51.038;3.712;2022-12-18T01:25:41;-2.90;99.90
21199;DHT22;10757;51.038;3.712;2022-12-18T01:28:07;-3.00;99.90
21199;DHT22;10757;51.038;3.712;2022-12-18T01:30:33;-3.00;99.90
21199;DHT22;10757;51.038;3.712;2022-12-18T01:32:59;-3.00;99.90
21199;DHT22;10757;51.038;3.712;2022-12-18T01:35:24;-3.10;99.90
21199;DHT22;10757;51.038;3.712;2022-12-18T01:37:54;-3.20;99.90
21199;DHT22;10757;51.038;3.712;2022-12-18T01:40:20;-3.30;99.90
21199;DHT22;10757;51.038;3.712;2022-12-18T01:42:54;-3.20;99.90
21199;DHT22;10757;51.038;3.712;2022-12-18T01:45:30;-3.20;99.90
21199;DHT22;10757;51.038;3.712;2022-12-18T01:48:00;-3.20;99.90
21199;DHT22;10757;51.038;3.712;2022-12-18T01:50:35;-3.20;99.90
21199;DHT22;10757;51.038;3.712;2022-12-18T01:55:57;-3.20;99.90
21199;DHT22;10757;51.038;3.712;2022-12-18T02:01:15;-3.40;99.90
21199;DHT22;10757;51.038;3.712;2022-12-18T02:03:42;-3.30;99.90
21199;DHT22;10757;51.038;3.712;2022-12-18T02:06:16;-3.20;99.90
21199;DHT22;10757;51.038;3.712;2022-12-18T02:14:23;-3.30;99.90
21199;DHT22;10757;51.038;3.712;2022-12-18T02:17:16;-3.40;99.90
21199;DHT22;10757;51.038;3.712;2022-12-18T02:27:49;-3.50;99.90
21199;DHT22;10757;51.038;3.712;2022-12-18T02:30:16;-3.60;99.90
21199;DHT22;10757;51.038;3.712;2022-12-18T02:32:46;-3.50;99.90
21199;DHT22;10757;51.038;3.712;2022-12-18T02:35:18;-3.50;99.90
21199;DHT22;10757;51.038;3.712;2022-12-18T02:37:46;-3.60;99.90
21199;DHT22;10757;51.038;3.712;2022-12-18T02:40:14;-3.50;99.90
21199;DHT22;10757;51.038;3.712;2022-12-18T02:42:41;-3.50;99.90
21199;DHT22;10757;51.038;3.712;2022-12-18T02:45:07;-3.50;99.90
21199;DHT22;10757;51.038;3.712;2022-12-18T02:47:37;-3.40;99.90
21199;DHT22;10757;51.038;3.712;2022-12-18T02:53:13;-3.50;99.90
21199;DHT22;10757;51.038;3.712;2022-12-18T02:55:52;-3.50;99.90
21199;DHT22;10757;51.038;3.712;2022-12-18T03:01:31;-3.50;99.90
21199;DHT22;10757;51.038;3.712;2022-12-18T03:04:01;-3.50;99.90
21199;DHT22;10757;51.038;3.712;2022-12-18T03:06:37;-3.60;99.90
21199;DHT22;10757;51.038;3.712;2022-12-18T03:09:19;-3.60;99.90
21199;DHT22;10757;51.038;3.712;2022-12-18T03:11:52;-3.80;99.90
21199;DHT22;10757;51.038;3.712;2022-12-18T03:14:38;-3.70;99.90
21199;DHT22;10757;51.038;3.712;2022-12-18T03:17:10;-3.70;99.90
21199;DHT22;10757;51.038;3.712;2022-12-18T03:19:40;-3.70;99.90
21199;DHT22;10757;51.038;3.712;2022-12-18T03:22:07;-3.70;99.90
21199;DHT22;10757;51.038;3.712;2022-12-18T03:24:33;-3.60;99.90
21199;DHT22;10757;51.038;3.712;2022-12-18T03:27:04;-3.50;99.90
21199;DHT22;10757;51.038;3.712;2022-12-18T03:29:40;-3.40;99.90
21199;DHT22;10757;51.038;3.712;2022-12-18T03:32:11;-3.50;99.90
21199;DHT22;10757;51.038;3.712;2022-12-18T03:34:40;-3.40;99.90
21199;DHT22;10757;51.038;3.712;2022-12-18T03:37:07;-3.40;99.90
21199;DHT22;10757;51.038;3.712;2022-12-18T03:39:33;-3.40;99.90
21199;DHT22;10757;51.038;3.712;2022-12-18T03:42:14;-3.50;99.90
21199;DHT22;10757;51.038;3.712;2022-12-18T03:44:44;-3.60;99.90
21199;DHT22;10757;51.038;3.712;2022-12-18T03:52:48;-3.70;99.90
21199;DHT22;10757;51.038;3.712;2022-12-18T03:55:16;-3.60;99.90
21199;DHT22;10757;51.038;3.712;2022-12-18T03:57:42;-3.50;99.90
21199;DHT22;10757;51.038;3.712;2022-12-18T04:00:12;-3.50;99.90
21199;DHT22;10757;51.038;3.712;2022-12-18T04:02:43;-3.60;99.90
21199;DHT22;10757;51.038;3.712;2022-12-18T04:05:10;-3.60;99.90
21199;DHT22;10757;51.038;3.712;2022-12-18T04:07:38;-3.50;99.90
21199;DHT22;10757;51.038;3.712;2022-12-18T04:10:06;-3.60;99.90
21199;DHT22;10757;51.038;3.712;2022-12-18T04:12:32;-3.60;99.90
21199;DHT22;10757;51.038;3.712;2022-12-18T04:14:59;-3.60;99.90
21199;DHT22;10757;51.038;3.712;2022-12-18T04:17:25;-3.60;99.90
21199;DHT22;10757;51.038;3.712;2022-12-18T04:19:50;-3.50;99.90
21199;DHT22;10757;51.038;3.712;2022-12-18T04:22:16;-3.60;99.90
21199;DHT22;10757;51.038;3.712;2022-12-18T04:24:42;-3.70;99.90
21199;DHT22;10757;51.038;3.712;2022-12-18T04:27:07;-3.80;99.90
21199;DHT22;10757;51.038;3.712;2022-12-18T04:29:34;-3.90;99.90
21199;DHT22;10757;51.038;3.712;2022-12-18T04:31:59;-3.90;99.90
21199;DHT22;10757;51.038;3.712;2022-12-18T04:34:25;-3.90;99.90
21199;DHT22;10757;51.038;3.712;2022-12-18T04:36:50;-3.80;99.90
21199;DHT22;10757;51.038;3.712;2022-12-18T04:39:16;-3.90;99.90
21199;DHT22;10757;51.038;3.712;2022-12-18T04:41:42;-3.90;99.90
21199;DHT22;10757;51.038;3.712;2022-12-18T04:44:08;-4.00;99.90
21199;DHT22;10757;51.038;3.712;2022-12-18T04:46:33;-4.00;99.90
21199;DHT22;10757;51.038;3.712;2022-12-18T04:48:59;-4.00;99.90
21199;DHT22;10757;51.038;3.712;2022-12-18T04:51:25;-4.00;99.90
21199;DHT22;10757;51.038;3.712;2022-12-18T04:53:50;-4.00;99.90
21199;DHT22;10757;51.038;3.712;2022-12-18T04:56:16;-3.90;99.90
21199;DHT22;10757;51.038;3.712;2022-12-18T04:58:43;-4.00;99.90
21199;DHT22;10757;51.038;3.712;2022-12-18T05:01:10;-3.90;99.90
21199;DHT22;10757;51.038;3.712;2022-12-18T05:03:37;-3.80;99.90
21199;DHT22;10757;51.038;3.712;2022-12-18T05:06:03;-3.90;99.90
21199;DHT22;10757;51.038;3.712;2022-12-18T05:08:29;-3.80;99.90
21199;DHT22;10757;51.038;3.712;2022-12-18T05:11:14;-3.70;99.90
21199;DHT22;10757;51.038;3.712;2022-12-18T05:13:42;-3.60;99.90
21199;DHT22;10757;51.038;3.712;2022-12-18T05:16:08;-3.70;99.90
21199;DHT22;10757;51.038;3.712;2022-12-18T05:18:34;-3.70;99.90
21199;DHT22;10757;51.038;3.712;2022-12-18T05:21:00;-3.70;99.90
21199;DHT22;10757;51.038;3.712;2022-12-18T05:23:26;-3.50;99.90
21199;DHT22;10757;51.038;3.712;2022-12-18T05:25:57;-3.60;99.90
21199;DHT22;10757;51.038;3.712;2022-12-18T05:28:26;-3.60;99.90
21199;DHT22;10757;51.038;3.712;2022-12-18T05:30:53;-3.60;99.90
21199;DHT22;10757;51.038;3.712;2022-12-18T05:33:21;-3.70;99.90
21199;DHT22;10757;51.038;3.712;2022-12-18T05:35:50;-3.70;99.90
21199;DHT22;10757;51.038;3.712;2022-12-18T05:38:17;-3.70;99.90
21199;DHT22;10757;51.038;3.712;2022-12-18T05:40:43;-3.60;99.90
21199;DHT22;10757;51.038;3.712;2022-12-18T05:43:09;-3.60;99.90
21199;DHT22;10757;51.038;3.712;2022-12-18T05:45:37;-3.60;99.90
21199;DHT22;10757;51.038;3.712;2022-12-18T05:48:04;-3.70;99.90
21199;DHT22;10757;51.038;3.712;2022-12-18T05:50:30;-3.60;99.90
21199;DHT22;10757;51.038;3.712;2022-12-18T05:52:56;-3.50;99.90
21199;DHT22;10757;51.038;3.712;2022-12-18T05:55:21;-3.50;99.90
21199;DHT22;10757;51.038;3.712;2022-12-18T05:57:47;-3.70;99.90
21199;DHT22;10757;51.038;3.712;2022-12-18T06:00:13;-3.60;99.90
21199;DHT22;10757;51.038;3.712;2022-12-18T06:02:39;-3.60;99.90
21199;DHT22;10757;51.038;3.712;2022-12-18T06:05:05;-3.70;99.90
21199;DHT22;10757;51.038;3.712;2022-12-18T06:07:30;-3.70;99.90
21199;DHT22;10757;51.038;3.712;2022-12-18T06:09:56;-3.70;99.90
21199;DHT22;10757;51.038;3.712;2022-12-18T06:12:22;-3.60;99.90
21199;DHT22;10757;51.038;3.712;2022-12-18T06:14:47;-3.60;99.90
21199;DHT22;10757;51.038;3.712;2022-12-18T06:17:13;-3.70;99.90
21199;DHT22;10757;51.038;3.712;2022-12-18T06:19:39;-3.70;99.90
21199;DHT22;10757;51.038;3.712;2022-12-18T06:22:05;-3.60;99.90
21199;DHT22;10757;51.038;3.712;2022-12-18T06:24:30;-3.50;99.90
21199;DHT22;10757;51.038;3.712;2022-12-18T06:26:56;-3.60;99.90
21199;DHT22;10757;51.038;3.712;2022-12-18T06:29:22;-3.50;99.90
21199;DHT22;10757;51.038;3.712;2022-12-18T06:31:47;-3.70;99.90
21199;DHT22;10757;51.038;3.712;2022-12-18T06:34:13;-3.60;99.90
21199;DHT22;10757;51.038;3.712;2022-12-18T06:36:39;-3.60;99.90
21199;DHT22;10757;51.038;3.712;2022-12-18T06:39:04;-3.70;99.90
21199;DHT22;10757;51.038;3.712;2022-12-18T06:41:30;-3.60;99.90
21199;DHT22;10757;51.038;3.712;2022-12-18T06:43:57;-3.60;99.90
21199;DHT22;10757;51.038;3.712;2022-12-18T06:46:23;-3.70;99.90
21199;DHT22;10757;51.038;3.712;2022-12-18T06:48:49;-3.70;99.90
21199;DHT22;10757;51.038;3.712;2022-12-18T06:51:19;-3.70;99.90
21199;DHT22;10757;51.038;3.712;2022-12-18T06:53:46;-3.70;99.90
21199;DHT22;10757;51.038;3.712;2022-12-18T06:56:11;-3.80;99.90
21199;DHT22;10757;51.038;3.712;2022-12-18T06:58:38;-3.80;99.90
21199;DHT22;10757;51.038;3.712;2022-12-18T07:01:07;-3.70;99.90
21199;DHT22;10757;51.038;3.712;2022-12-18T07:03:33;-3.70;99.90
21199;DHT22;10757;51.038;3.712;2022-12-18T07:05:58;-3.70;99.90
21199;DHT22;10757;51.038;3.712;2022-12-18T07:08:24;-3.70;99.90
21199;DHT22;10757;51.038;3.712;2022-12-18T07:10:50;-3.80;99.90
21199;DHT22;10757;51.038;3.712;2022-12-18T07:13:16;-3.70;99.90
21199;DHT22;10757;51.038;3.712;2022-12-18T07:15:43;-3.70;99.90
21199;DHT22;10757;51.038;3.712;2022-12-18T07:18:10;-3.70;99.90
21199;DHT22;10757;51.038;3.712;2022-12-18T07:20:36;-3.70;99.90
21199;DHT22;10757;51.038;3.712;2022-12-18T07:23:03;-3.70;99.90
21199;DHT22;10757;51.038;3.712;2022-12-18T07:25:29;-3.70;99.90
21199;DHT22;10757;51.038;3.712;2022-12-18T07:27:58;-3.80;99.90
21199;DHT22;10757;51.038;3.712;2022-12-18T07:30:23;-3.80;99.90
21199;DHT22;10757;51.038;3.712;2022-12-18T07:32:49;-3.80;99.90
21199;DHT22;10757;51.038;3.712;2022-12-18T07:35:15;-3.80;99.90
21199;DHT22;10757;51.038;3.712;2022-12-18T07:37:40;-3.80;99.90
21199;DHT22;10757;51.038;3.712;2022-12-18T07:40:06;-3.70;99.90
21199;DHT22;10757;51.038;3.712;2022-12-18T07:42:32;-3.80;99.90
21199;DHT22;10757;51.038;3.712;2022-12-18T07:44:59;-3.80;99.90
21199;DHT22;10757;51.038;3.712;2022-12-18T07:47:25;-3.90;99.90
21199;DHT22;10757;51.038;3.712;2022-12-18T07:49:51;-3.80;99.90
21199;DHT22;10757;51.038;3.712;2022-12-18T07:52:18;-3.70;99.90
21199;DHT22;10757;51.038;3.712;2022-12-18T07:54:43;-3.70;99.90
21199;DHT22;10757;51.038;3.712;2022-12-18T07:57:09;-3.60;99.90
21199;DHT22;10757;51.038;3.712;2022-12-18T07:59:35;-3.60;99.90
21199;DHT22;10757;51.038;3.712;2022-12-18T08:02:01;-3.70;99.90
21199;DHT22;10757;51.038;3.712;2022-12-18T08:04:26;-3.70;99.90
21199;DHT22;10757;51.038;3.712;2022-12-18T08:06:52;-3.70;99.90
21199;DHT22;10757;51.038;3.712;2022-12-18T08:09:18;-3.70;99.90
21199;DHT22;10757;51.038;3.712;2022-12-18T08:11:44;-3.80;99.90
21199;DHT22;10757;51.038;3.712;2022-12-18T08:14:10;-3.80;99.90
21199;DHT22;10757;51.038;3.712;2022-12-18T08:16:36;-3.80;99.90
21199;DHT22;10757;51.038;3.712;2022-12-18T08:19:02;-3.70;99.90
21199;DHT22;10757;51.038;3.712;2022-12-18T08:21:29;-3.70;99.90
21199;DHT22;10757;51.038;3.712;2022-12-18T08:23:57;-3.70;99.90
21199;DHT22;10757;51.038;3.712;2022-12-18T08:26:25;-3.70;99.90
21199;DHT22;10757;51.038;3.712;2022-12-18T08:28:57;-3.60;99.90
21199;DHT22;10757;51.038;3.712;2022-12-18T08:31:24;-3.50;99.90
21199;DHT22;10757;51.038;3.712;2022-12-18T08:33:51;-3.40;99.90
21199;DHT22;10757;51.038;3.712;2022-12-18T08:36:17;-3.30;99.90
21199;DHT22;10757;51.038;3.712;2022-12-18T08:38:43;-3.30;99.90
21199;DHT22;10757;51.038;3.712;2022-12-18T08:41:11;-3.30;99.90
21199;DHT22;10757;51.038;3.712;2022-12-18T08:43:37;-3.20;99.90
21199;DHT22;10757;51.038;3.712;2022-12-18T08:46:24;-3.10;99.90
21199;DHT22;10757;51.038;3.712;2022-12-18T08:48:52;-3.00;99.90
21199;DHT22;10757;51.038;3.712;2022-12-18T08:51:19;-2.90;99.90
21199;DHT22;10757;51.038;3.712;2022-12-18T08:53:45;-2.70;99.90
21199;DHT22;10757;51.038;3.712;2022-12-18T08:56:13;-2.60;99.90
21199;DHT22;10757;51.038;3.712;2022-12-18T08:58:39;-2.70;99.90
21199;DHT22;10757;51.038;3.712;2022-12-18T09:01:10;-2.70;99.90
21199;DHT22;10757;51.038;3.712;2022-12-18T09:03:36;-2.60;99.90
21199;DHT22;10757;51.038;3.712;2022-12-18T09:06:02;-2.60;99.90
21199;DHT22;10757;51.038;3.712;2022-12-18T09:08:28;-2.60;99.90
21199;DHT22;10757;51.038;3.712;2022-12-18T09:10:54;-2.60;99.90
21199;DHT22;10757;51.038;3.712;2022-12-18T09:13:20;-2.60;99.90
21199;DHT22;10757;51.038;3.712;2022-12-18T09:15:51;-2.50;99.90
21199;DHT22;10757;51.038;3.712;2022-12-18T09:18:19;-2.40;99.90
21199;DHT22;10757;51.038;3.712;2022-12-18T09:20:45;-2.30;99.90
21199;DHT22;10757;51.038;3.712;2022-12-18T09:23:12;-2.20;99.90
21199;DHT22;10757;51.038;3.712;2022-12-18T09:25:38;-2.10;99.90
21199;DHT22;10757;51.038;3.712;2022-12-18T09:28:05;-2.10;99.90
21199;DHT22;10757;51.038;3.712;2022-12-18T09:30:32;-2.10;99.90
21199;DHT22;10757;51.038;3.712;2022-12-18T09:33:00;-1.90;99.90
21199;DHT22;10757;51.038;3.712;2022-12-18T09:35:25;-1.90;99.90
21199;DHT22;10757;51.038;3.712;2022-12-18T09:37:53;-1.90;99.90
21199;DHT22;10757;51.038;3.712;2022-12-18T09:40:22;-1.80;99.90
21199;DHT22;10757;51.038;3.712;2022-12-18T09:42:53;-1.80;99.90
21199;DHT22;10757;51.038;3.712;2022-12-18T09:45:21;-1.80;99.90
21199;DHT22;10757;51.038;3.712;2022-12-18T09:47:49;-1.70;99.90
21199;DHT22;10757;51.038;3.712;2022-12-18T09:50:37;-1.60;99.90
21199;DHT22;10757;51.038;3.712;2022-12-18T09:53:12;-1.70;99.90
21199;DHT22;10757;51.038;3.712;2022-12-18T09:55:43;-1.60;99.90
21199;DHT22;10757;51.038;3.712;2022-12-18T09:58:15;-1.50;99.90
21199;DHT22;10757;51.038;3.712;2022-12-18T10:00:42;-1.60;99.90
21199;DHT22;10757;51.038;3.712;2022-12-18T10:03:10;-1.50;99.90
21199;DHT22;10757;51.038;3.712;2022-12-18T10:08:51;-1.30;99.90
21199;DHT22;10757;51.038;3.712;2022-12-18T10:14:27;-1.30;99.90
21199;DHT22;10757;51.038;3.712;2022-12-18T10:20:00;-1.30;99.90
21199;DHT22;10757;51.038;3.712;2022-12-18T10:22:42;-1.40;99.90
21199;DHT22;10757;51.038;3.712;2022-12-18T10:25:19;-1.40;99.90
21199;DHT22;10757;51.038;3.712;2022-12-18T10:27:46;-1.20;99.90
21199;DHT22;10757;51.038;3.712;2022-12-18T10:30:14;-1.20;99.90
21199;DHT22;10757;51.038;3.712;2022-12-18T10:32:40;-1.10;99.90
21199;DHT22;10757;51.038;3.712;2022-12-18T10:35:15;-1.10;99.90
21199;DHT22;10757;51.038;3.712;2022-12-18T10:38:32;-1.10;99.90
21199;DHT22;10757;51.038;3.712;2022-12-18T10:40:57;-1.20;99.90
21199;DHT22;10757;51.038;3.712;2022-12-18T10:43:33;-1.20;99.90
21199;DHT22;10757;51.038;3.712;2022-12-18T10:51:29;-1.00;99.90
21199;DHT22;10757;51.038;3.712;2022-12-18T10:56:26;-0.90;99.90
21199;DHT22;10757;51.038;3.712;2022-12-18T10:59:09;-1.00;99.90
21199;DHT22;10757;51.038;3.712;2022-12-18T11:01:56;-0.80;99.90
21199;DHT22;10757;51.038;3.712;2022-12-18T11:04:27;-0.80;99.90
21199;DHT22;10757;51.038;3.712;2022-12-18T11:06:59;-0.80;99.90
21199;DHT22;10757;51.038;3.712;2022-12-18T11:09:30;-0.80;99.90
21199;DHT22;10757;51.038;3.712;2022-12-18T11:11:59;-0.80;99.90
21199;DHT22;10757;51.038;3.712;2022-12-18T11:17:28;-0.70;99.90
21199;DHT22;10757;51.038;3.712;2022-12-18T11:19:59;-0.70;99.90
21199;DHT22;10757;51.038;3.712;2022-12-18T11:22:36;-0.70;99.90
21199;DHT22;10757;51.038;3.712;2022-12-18T11:27:52;-0.70;99.90
21199;DHT22;10757;51.038;3.712;2022-12-18T11:38:35;-0.40;99.90
21199;DHT22;10757;51.038;3.712;2022-12-18T11:43:40;-0.20;99.90
21199;DHT22;10757;51.038;3.712;2022-12-18T11:46:17;-0.10;99.90
21199;DHT22;10757;51.038;3.712;2022-12-18T11:48:56;-0.10;99.90
21199;DHT22;10757;51.038;3.712;2022-12-18T11:51:47;-0.10;99.90
21199;DHT22;10757;51.038;3.712;2022-12-18T11:54:15;0.00;99.90
21199;DHT22;10757;51.038;3.712;2022-12-18T12:13:23;0.40;99.90
21199;DHT22;10757;51.038;3.712;2022-12-18T12:21:51;0.40;99.90
21199;DHT22;10757;51.038;3.712;2022-12-18T12:29:39;0.50;99.90
21199;DHT22;10757;51.038;3.712;2022-12-18T12:35:09;0.50;99.90
21199;DHT22;10757;51.038;3.712;2022-12-18T12:40:18;0.60;99.90
21199;DHT22;10757;51.038;3.712;2022-12-18T12:42:50;0.60;99.90
21199;DHT22;10757;51.038;3.712;2022-12-18T12:48:07;0.60;99.90
21199;DHT22;10757;51.038;3.712;2022-12-18T12:50:40;0.50;99.90
21199;DHT22;10757;51.038;3.712;2022-12-18T12:53:09;0.50;99.90
21199;DHT22;10757;51.038;3.712;2022-12-18T12:55:39;0.60;99.90
21199;DHT22;10757;51.038;3.712;2022-12-18T12:58:16;0.60;99.90
21199;DHT22;10757;51.038;3.712;2022-12-18T13:01:15;0.80;99.90
21199;DHT22;10757;51.038;3.712;2022-12-18T13:04:03;0.90;99.90
21199;DHT22;10757;51.038;3.712;2022-12-18T13:09:33;1.10;99.90
21199;DHT22;10757;51.038;3.712;2022-12-18T13:12:18;0.90;99.90
21199;DHT22;10757;51.038;3.712;2022-12-18T13:15:22;0.80;99.90
21199;DHT22;10757;51.038;3.712;2022-12-18T13:17:48;0.80;99.90
21199;DHT22;10757;51.038;3.712;2022-12-18T13:20:15;1.00;99.90
21199;DHT22;10757;51.038;3.712;2022-12-18T13:22:48;1.00;99.90
21199;DHT22;10757;51.038;3.712;2022-12-18T13:25:33;1.00;99.90
21199;DHT22;10757;51.038;3.712;2022-12-18T13:28:06;1.10;99.90
21199;DHT22;10757;51.038;3.712;2022-12-18T13:38:32;1.20;99.90
21199;DHT22;10757;51.038;3.712;2022-12-18T13:41:01;1.30;99.90
21199;DHT22;10757;51.038;3.712;2022-12-18T13:44:10;1.40;99.90
21199;DHT22;10757;51.038;3.712;2022-12-18T13:46:46;1.20;99.90
21199;DHT22;10757;51.038;3.712;2022-12-18T13:51:43;0.90;99.90
21199;DHT22;10757;51.038;3.712;2022-12-18T13:57:01;0.90;99.90
21199;DHT22;10757;51.038;3.712;2022-12-18T13:59:38;1.00;99.90
21199;DHT22;10757;51.038;3.712;2022-12-18T14:02:25;1.10;99.90
21199;DHT22;10757;51.038;3.712;2022-12-18T14:04:52;1.30;99.90
21199;DHT22;10757;51.038;3.712;2022-12-18T14:07:22;1.40;99.90
21199;DHT22;10757;51.038;3.712;2022-12-18T14:09:57;1.30;99.90
21199;DHT22;10757;51.038;3.712;2022-12-18T14:12:31;1.10;99.90
21199;DHT22;10757;51.038;3.712;2022-12-18T14:20:44;1.10;99.90
21199;DHT22;10757;51.038;3.712;2022-12-18T14:23:33;1.00;99.90
21199;DHT22;10757;51.038;3.712;2022-12-18T14:28:46;1.10;99.90
21199;DHT22;10757;51.038;3.712;2022-12-18T14:31:25;1.10;99.90
21199;DHT22;10757;51.038;3.712;2022-12-18T14:33:52;1.10;99.90
21199;DHT22;10757;51.038;3.712;2022-12-18T14:36:21;1.20;99.90
21199;DHT22;10757;51.038;3.712;2022-12-18T14:38:51;1.20;99.90
21199;DHT22;10757;51.038;3.712;2022-12-18T14:41:19;1.10;99.90
21199;DHT22;10757;51.038;3.712;2022-12-18T14:43:48;1.30;99.90
21199;DHT22;10757;51.038;3.712;2022-12-18T14:46:34;1.40;99.90
21199;DHT22;10757;51.038;3.712;2022-12-18T14:51:54;1.20;99.90
21199;DHT22;10757;51.038;3.712;2022-12-18T14:54:22;1.10;99.90
21199;DHT22;10757;51.038;3.712;2022-12-18T14:56:58;1.10;99.90
21199;DHT22;10757;51.038;3.712;2022-12-18T14:59:26;1.20;99.90
21199;DHT22;10757;51.038;3.712;2022-12-18T15:07:22;1.30;99.90
21199;DHT22;10757;51.038;3.712;2022-12-18T15:12:39;1.50;99.90
21199;DHT22;10757;51.038;3.712;2022-12-18T15:20:52;1.40;99.90
21199;DHT22;10757;51.038;3.712;2022-12-18T15:23:58;1.30;99.90
21199;DHT22;10757;51.038;3.712;2022-12-18T15:26:19;1.20;99.90
21199;DHT22;10757;51.038;3.712;2022-12-18T15:28:56;1.40;99.90
21199;DHT22;10757;51.038;3.712;2022-12-18T15:31:31;1.40;99.90
21199;DHT22;10757;51.038;3.712;2022-12-18T15:36:25;1.30;99.90
21199;DHT22;10757;51.038;3.712;2022-12-18T15:38:51;1.40;99.90
21199;DHT22;10757;51.038;3.712;2022-12-18T15:41:19;1.50;99.90
21199;DHT22;10757;51.038;3.712;2022-12-18T15:43:48;1.40;99.90
21199;DHT22;10757;51.038;3.712;2022-12-18T15:46:16;1.50;99.90
21199;DHT22;10757;51.038;3.712;2022-12-18T15:48:47;1.50;99.90
21199;DHT22;10757;51.038;3.712;2022-12-18T15:53:42;1.60;99.90
21199;DHT22;10757;51.038;3.712;2022-12-18T15:56:13;1.60;99.90
21199;DHT22;10757;51.038;3.712;2022-12-18T15:58:58;1.60;99.90
21199;DHT22;10757;51.038;3.712;2022-12-18T16:01:26;1.70;99.90
21199;DHT22;10757;51.038;3.712;2022-12-18T16:03:55;1.60;99.90
21199;DHT22;10757;51.038;3.712;2022-12-18T16:06:24;1.70;99.90
21199;DHT22;10757;51.038;3.712;2022-12-18T16:08:50;1.70;99.90
21199;DHT22;10757;51.038;3.712;2022-12-18T16:11:23;1.80;99.90
21199;DHT22;10757;51.038;3.712;2022-12-18T16:14:05;1.70;99.90
21199;DHT22;10757;51.038;3.712;2022-12-18T16:16:31;1.60;99.90
21199;DHT22;10757;51.038;3.712;2022-12-18T16:18:57;1.60;99.90
21199;DHT22;10757;51.038;3.712;2022-12-18T16:21:23;1.70;99.90
21199;DHT22;10757;51.038;3.712;2022-12-18T16:23:48;1.60;99.90
21199;DHT22;10757;51.038;3.712;2022-12-18T16:26:14;1.60;99.90
21199;DHT22;10757;51.038;3.712;2022-12-18T16:28:40;1.60;99.90
21199;DHT22;10757;51.038;3.712;2022-12-18T16:31:05;1.60;99.90
21199;DHT22;10757;51.038;3.712;2022-12-18T16:33:31;1.60;99.90
21199;DHT22;10757;51.038;3.712;2022-12-18T16:35:57;1.60;99.90
21199;DHT22;10757;51.038;3.712;2022-12-18T16:38:22;1.70;99.90
21199;DHT22;10757;51.038;3.712;2022-12-18T16:40:48;1.60;99.90
21199;DHT22;10757;51.038;3.712;2022-12-18T16:43:32;1.70;99.90
21199;DHT22;10757;51.038;3.712;2022-12-18T16:45:58;1.70;99.90
21199;DHT22;10757;51.038;3.712;2022-12-18T16:48:24;1.80;99.90
21199;DHT22;10757;51.038;3.712;2022-12-18T16:50:50;1.80;99.90
21199;DHT22;10757;51.038;3.712;2022-12-18T16:53:24;1.90;99.90
21199;DHT22;10757;51.038;3.712;2022-12-18T16:55:54;1.80;99.90
21199;DHT22;10757;51.038;3.712;2022-12-18T16:58:20;1.90;99.90
21199;DHT22;10757;51.038;3.712;2022-12-18T17:00:46;2.00;99.90
21199;DHT22;10757;51.038;3.712;2022-12-18T17:03:12;2.00;99.90
21199;DHT22;10757;51.038;3.712;2022-12-18T17:05:38;2.00;99.90
21199;DHT22;10757;51.038;3.712;2022-12-18T17:08:04;2.00;99.90
21199;DHT22;10757;51.038;3.712;2022-12-18T17:10:30;2.00;99.90
21199;DHT22;10757;51.038;3.712;2022-12-18T17:12:56;1.90;99.90
21199;DHT22;10757;51.038;3.712;2022-12-18T17:15:22;1.90;99.90
21199;DHT22;10757;51.038;3.712;2022-12-18T17:17:47;1.90;99.90
21199;DHT22;10757;51.038;3.712;2022-12-18T17:20:13;1.90;99.90
21199;DHT22;10757;51.038;3.712;2022-12-18T17:22:39;2.00;99.90
21199;DHT22;10757;51.038;3.712;2022-12-18T17:25:04;2.10;99.90
21199;DHT22;10757;51.038;3.712;2022-12-18T17:27:30;2.10;99.90
21199;DHT22;10757;51.038;3.712;2022-12-18T17:29:56;2.10;99.90
21199;DHT22;10757;51.038;3.712;2022-12-18T17:32:22;2.20;99.90
21199;DHT22;10757;51.038;3.712;2022-12-18T17:34:47;2.10;99.90
21199;DHT22;10757;51.038;3.712;2022-12-18T17:37:13;2.20;99.90
21199;DHT22;10757;51.038;3.712;2022-12-18T17:39:39;2.20;99.90
21199;DHT22;10757;51.038;3.712;2022-12-18T17:42:06;2.20;99.90
21199;DHT22;10757;51.038;3.712;2022-12-18T17:44:35;2.20;99.90
21199;DHT22;10757;51.038;3.712;2022-12-18T17:47:00;2.20;99.90
21199;DHT22;10757;51.038;3.712;2022-12-18T17:49:26;2.30;99.90
21199;DHT22;10757;51.038;3.712;2022-12-18T17:51:52;2.10;99.90
21199;DHT22;10757;51.038;3.712;2022-12-18T17:54:18;2.10;99.90
21199;DHT22;10757;51.038;3.712;2022-12-18T17:56:44;2.10;99.90
21199;DHT22;10757;51.038;3.712;2022-12-18T17:59:10;2.10;99.90
21199;DHT22;10757;51.038;3.712;2022-12-18T18:01:37;2.00;99.90
21199;DHT22;10757;51.038;3.712;2022-12-18T18:04:03;2.10;99.90
21199;DHT22;10757;51.038;3.712;2022-12-18T18:06:31;2.00;99.90
21199;DHT22;10757;51.038;3.712;2022-12-18T18:08:57;1.80;99.90
21199;DHT22;10757;51.038;3.712;2022-12-18T18:11:23;1.80;99.90
21199;DHT22;10757;51.038;3.712;2022-12-18T18:14:17;1.80;99.90
21199;DHT22;10757;51.038;3.712;2022-12-18T18:16:48;1.90;99.90